Time;durP1;ratioP1;P1;durP2;ratioP2;P2;SDS_P1;SDS_P2;PMS_P1;PMS_P2;Temp;Humidity;BMP_temperature;BMP_pressure;BME280_temperature;BME280_humidity;BME280_pressure;Samples;Min_cycle;Max_cycle;Signal;HPM_P1;HPM_P2
2023/05/17 00:02:03;;;;;;;;;;;;;;;18.01;80.16;99589.09;5435116;32;35624;-89
2023/05/17 00:05:05;;;;;;;;;;;;;;;18.14;79.14;99589.75;5445610;32;35288;-90
2023/05/17 00:08:07;;;;;;;;;;;;;;;17.33;82.05;99599.84;5446077;32;34979;-89
2023/05/17 00:11:12;;;;;;;;;;;;;;;17.17;85.02;99602.00;5453226;32;34760;-90
2023/05/17 00:14:14;;;;;;;;;;;;;;;17.14;84.99;99602.28;5450791;32;35990;-89
2023/05/17 00:17:17;;;;;;;;;;;;;;;17.68;81.96;99601.47;5447485;32;45509;-89
2023/05/17 00:20:19;;;;;;;;;;;;;;;17.94;80.21;99601.19;5436132;32;34734;-90
2023/05/17 00:23:21;;;;;;;;;;;;;;;17.78;81.65;99599.81;5425552;32;34486;-90
2023/05/17 00:26:25;;;;;;;;;;;;;;;18.18;78.29;99599.19;5434427;32;34795;-89
2023/05/17 00:29:27;;;;;;;;;;;;;;;17.24;83.31;99602.38;5448681;32;35458;-90
2023/05/17 00:32:30;;;;;;;;;;;;;;;16.96;85.90;99596.59;5416537;27;35193;-89
2023/05/17 00:35:37;;;;;;;;;;;;;;;17.43;84.58;99601.75;5357650;32;35059;-95
2023/05/17 00:38:57;;;;;;;;;;;;;;;18.16;79.21;99582.50;5409356;32;44104;-93
2023/05/17 00:42:11;;;;;;;;;;;;;;;18.39;76.81;99588.56;5403340;32;34921;-93
2023/05/17 00:45:20;;;;;;;;;;;;;;;18.21;77.17;99585.62;5378337;32;44208;-90
2023/05/17 00:48:35;;;;;;;;;;;;;;;18.03;78.13;99585.34;5353781;32;33887;-89
2023/05/17 00:51:41;;;;;;;;;;;;;;;17.32;81.52;99591.97;5354652;32;35578;-89
2023/05/17 00:54:48;;;;;;;;;;;;;;;17.46;81.23;99596.22;5367408;32;36127;-93
2023/05/17 00:57:55;;;;;;;;;;;;;;;17.93;79.45;99586.22;5364093;32;44905;-90
2023/05/17 01:01:00;;;;;;;;;;;;;;;18.00;78.66;99588.25;5372993;32;34678;-90
2023/05/17 01:04:06;;;;;;;;;;;;;;;17.75;79.31;99597.37;5367860;32;33585;-89
2023/05/17 01:07:09;;;;;;;;;;;;;;;17.74;79.99;99603.66;5376848;32;34644;-89
2023/05/17 01:10:12;;;;;;;;;;;;;;;17.58;80.44;99603.16;5373390;32;34224;-89
2023/05/17 01:13:27;;;;;;;;;;;;;;;17.39;81.61;99616.25;5381852;32;44925;-94
2023/05/17 01:16:44;;;;;;;;;;;;;;;18.13;78.33;99612.00;5353149;32;34881;-93
2023/05/17 01:19:49;;;;;;;;;;;;;;;17.87;78.10;99601.69;5374294;32;43343;-92
2023/05/17 01:23:10;;;;;;;;;;;;;;;17.10;82.72;99611.44;5369519;32;32826;-92
2023/05/17 01:26:38;;;;;;;;;;;;;;;17.26;82.93;99611.94;5358343;32;43038;-92
2023/05/17 01:29:47;;;;;;;;;;;;;;;17.31;82.44;99603.56;5354432;32;35632;-92
2023/05/17 01:32:57;;;;;;;;;;;;;;;17.63;81.69;99585.06;5344836;32;34088;-92
2023/05/17 01:36:06;;;;;;;;;;;;;;;18.02;78.70;99582.78;5366446;32;35120;-93
2023/05/17 01:39:21;;;;;;;;;;;;;;;18.28;76.83;99576.16;5377206;32;35194;-92
2023/05/17 01:42:30;;;;;;;;;;;;;;;18.45;75.34;99582.72;5404944;32;34948;-92
2023/05/17 01:45:40;;;;;;;;;;;;;;;17.50;79.68;99582.53;5403355;32;34436;-89
2023/05/17 01:48:54;;;;;;;;;;;;;;;17.26;82.47;99582.72;5358916;32;33311;-92
2023/05/17 01:52:12;;;;;;;;;;;;;;;17.43;81.63;99577.84;5387224;32;34242;-89
2023/05/17 01:55:35;;;;;;;;;;;;;;;17.14;83.38;99575.72;5376250;32;34450;-89
2023/05/17 01:58:49;;;;;;;;;;;;;;;16.82;86.50;99566.78;5382255;32;44576;-88
2023/05/17 02:01:56;;;;;;;;;;;;;;;16.54;87.74;99568.84;5384497;32;34220;-91
2023/05/17 02:05:08;;;;;;;;;;;;;;;17.03;87.22;99573.06;5382010;32;34673;-92
2023/05/17 02:08:14;;;;;;;;;;;;;;;17.22;84.94;99577.75;5395632;32;34034;-92
2023/05/17 02:11:27;;;;;;;;;;;;;;;16.89;85.43;99581.25;5384906;32;45261;-93
2023/05/17 02:14:36;;;;;;;;;;;;;;;17.09;85.62;99588.50;5368671;32;35043;-92
2023/05/17 02:17:49;;;;;;;;;;;;;;;17.20;84.36;99591.16;5367440;32;44597;-90
2023/05/17 02:20:55;;;;;;;;;;;;;;;17.12;84.08;99593.56;5366980;32;35632;-90
2023/05/17 02:24:06;;;;;;;;;;;;;;;18.04;79.15;99587.03;5379957;32;35420;-89
2023/05/17 02:27:12;;;;;;;;;;;;;;;18.15;76.90;99578.16;5368800;32;34144;-92
2023/05/17 02:30:21;;;;;;;;;;;;;;;17.22;80.63;99589.22;5368561;32;34598;-91
2023/05/17 02:33:29;;;;;;;;;;;;;;;16.77;84.87;99599.81;5368531;32;45629;-89
2023/05/17 02:36:37;;;;;;;;;;;;;;;17.41;82.72;99604.53;5354231;32;35974;-93
2023/05/17 02:39:49;;;;;;;;;;;;;;;18.21;77.07;99604.22;5394870;32;44674;-89
2023/05/17 02:42:58;;;;;;;;;;;;;;;18.13;77.18;99625.31;5358052;32;34320;-92
2023/05/17 02:46:10;;;;;;;;;;;;;;;16.66;83.50;99628.94;5391260;32;32766;-93
2023/05/17 02:49:23;;;;;;;;;;;;;;;16.63;86.74;99628.34;5370203;32;46206;-92
2023/05/17 02:52:34;;;;;;;;;;;;;;;16.70;86.13;99633.09;5381738;32;34135;-92
2023/05/17 02:55:42;;;;;;;;;;;;;;;17.49;82.19;99635.81;5373815;32;35701;-91
2023/05/17 02:59:00;;;;;;;;;;;;;;;17.77;80.71;99622.00;5370825;32;35264;-89
2023/05/17 03:02:09;;;;;;;;;;;;;;;17.59;80.35;99626.16;5388017;32;35362;-93
2023/05/17 03:05:19;;;;;;;;;;;;;;;17.79;79.97;99616.59;5390706;32;45826;-90
2023/05/17 03:08:22;;;;;;;;;;;;;;;18.10;77.44;99617.59;5374866;32;34273;-89
2023/05/17 03:11:31;;;;;;;;;;;;;;;17.50;81.22;99633.03;5386493;32;34004;-92
2023/05/17 03:14:50;;;;;;;;;;;;;;;17.22;82.27;99626.41;5384009;32;34377;-93
2023/05/17 03:17:56;;;;;;;;;;;;;;;16.52;87.58;99632.66;5377750;32;35134;-93
2023/05/17 03:21:05;;;;;;;;;;;;;;;16.94;85.82;99633.03;5401817;32;34421;-89
2023/05/17 03:24:11;;;;;;;;;;;;;;;16.59;86.70;99640.13;5369132;32;35679;-92
2023/05/17 03:27:32;;;;;;;;;;;;;;;17.47;82.72;99643.91;5373782;32;35865;-92
2023/05/17 03:30:39;;;;;;;;;;;;;;;17.13;83.35;99636.88;5354246;32;35009;-89
2023/05/17 03:33:44;;;;;;;;;;;;;;;16.88;85.89;99638.81;5361515;32;34416;-88
2023/05/17 03:36:52;;;;;;;;;;;;;;;17.51;82.86;99639.19;5305655;32;45110;-92
2023/05/17 03:39:56;;;;;;;;;;;;;;;16.76;85.57;99640.59;5359357;32;33785;-88
2023/05/17 03:42:58;;;;;;;;;;;;;;;17.02;86.56;99630.63;5375179;32;34583;-88
2023/05/17 03:46:04;;;;;;;;;;;;;;;17.31;85.22;99641.59;5357204;32;35258;-88
2023/05/17 03:49:11;;;;;;;;;;;;;;;17.32;84.57;99653.06;5361124;32;35730;-91
2023/05/17 03:52:17;;;;;;;;;;;;;;;16.55;88.74;99666.06;5352172;32;43516;-88
2023/05/17 03:55:21;;;;;;;;;;;;;;;17.12;87.19;99669.72;5338068;32;35207;-87
2023/05/17 03:58:27;;;;;;;;;;;;;;;17.11;86.08;99679.50;5364692;32;33358;-92
2023/05/17 04:01:34;;;;;;;;;;;;;;;17.60;84.57;99683.63;5346892;32;34334;-88
2023/05/17 04:04:39;;;;;;;;;;;;;;;17.66;83.95;99690.28;5369876;32;34200;-92
2023/05/17 04:07:44;;;;;;;;;;;;;;;17.55;83.96;99691.13;5349978;32;34233;-88
2023/05/17 04:10:49;;;;;;;;;;;;;;;18.21;81.11;99670.72;5357491;32;44022;-88
2023/05/17 04:13:54;;;;;;;;;;;;;;;18.16;79.80;99677.38;5348721;32;34645;-88
2023/05/17 04:17:01;;;;;;;;;;;;;;;18.25;79.21;99669.50;5356937;32;35371;-91
2023/05/17 04:20:08;;;;;;;;;;;;;;;17.88;82.13;99687.59;5359288;32;35111;-91
2023/05/17 04:23:15;;;;;;;;;;;;;;;17.87;80.67;99697.41;5362198;32;33840;-87
2023/05/17 04:26:20;;;;;;;;;;;;;;;17.56;82.02;99688.31;5360560;32;44543;-88
2023/05/17 04:29:31;;;;;;;;;;;;;;;17.31;85.90;99691.22;5377401;32;35542;-91
2023/05/17 04:32:37;;;;;;;;;;;;;;;18.10;82.27;99694.72;5370943;32;32845;-92
2023/05/17 04:35:50;;;;;;;;;;;;;;;18.48;79.19;99696.84;5341634;32;34441;-91
2023/05/17 04:39:08;;;;;;;;;;;;;;;18.51;79.26;99703.75;5351174;32;35484;-88
2023/05/17 04:42:13;;;;;;;;;;;;;;;18.82;77.15;99704.75;5365059;32;34614;-91
2023/05/17 04:45:18;;;;;;;;;;;;;;;18.86;77.47;99722.97;5364937;32;43208;-87
2023/05/17 04:48:27;;;;;;;;;;;;;;;19.03;76.40;99729.56;5345818;32;35477;-89
2023/05/17 04:51:37;;;;;;;;;;;;;;;18.51;78.79;99735.69;5360412;32;35658;-87
2023/05/17 04:54:40;;;;;;;;;;;;;;;18.75;77.26;99746.16;5351078;32;34652;-90
2023/05/17 04:57:46;;;;;;;;;;;;;;;19.00;76.95;99747.59;5375965;32;44212;-88
2023/05/17 05:00:49;;;;;;;;;;;;;;;19.20;76.05;99747.63;5375995;32;36992;-90
2023/05/17 05:04:05;;;;;;;;;;;;;;;18.50;79.75;99745.50;5373095;32;34617;-94
2023/05/17 05:07:19;;;;;;;;;;;;;;;18.92;78.23;99741.09;5369995;32;34771;-90
2023/05/17 05:10:27;;;;;;;;;;;;;;;19.21;76.17;99733.31;5369249;32;44433;-88
2023/05/17 05:13:37;;;;;;;;;;;;;;;18.48;78.81;99741.25;5364062;32;35805;-91
2023/05/17 05:16:41;;;;;;;;;;;;;;;18.85;79.20;99747.91;5362066;32;34715;-89
2023/05/17 05:19:45;;;;;;;;;;;;;;;18.72;79.13;99746.41;5371348;32;34864;-89
2023/05/17 05:22:57;;;;;;;;;;;;;;;18.80;78.62;99746.59;5384386;32;45482;-88
2023/05/17 05:26:05;;;;;;;;;;;;;;;17.98;82.93;99751.53;5380476;32;33551;-87
2023/05/17 05:29:14;;;;;;;;;;;;;;;18.48;82.43;99746.56;5381638;32;34081;-87
2023/05/17 05:32:38;;;;;;;;;;;;;;;18.86;80.79;99754.94;5370887;32;34207;-90
2023/05/17 05:35:49;;;;;;;;;;;;;;;18.63;81.14;99761.31;5337672;32;35277;-89
2023/05/17 05:39:15;;;;;;;;;;;;;;;18.77;79.07;99758.38;5377005;32;35557;-89
2023/05/17 05:42:20;;;;;;;;;;;;;;;18.99;77.69;99772.53;5369560;32;45151;-90
2023/05/17 05:45:24;;;;;;;;;;;;;;;19.55;74.75;99775.72;5380181;32;33826;-89
2023/05/17 05:48:31;;;;;;;;;;;;;;;19.43;75.27;99774.94;5355748;32;34887;-88
2023/05/17 05:51:57;;;;;;;;;;;;;;;19.06;75.58;99774.56;5400841;32;44106;-91
2023/05/17 05:55:06;;;;;;;;;;;;;;;18.97;78.27;99774.50;5378736;32;34692;-93
2023/05/17 05:58:11;;;;;;;;;;;;;;;19.37;76.96;99778.13;5393165;32;34073;-92
2023/05/17 06:05:25;;;;;;;;;;;;;;;20.18;70.16;99771.13;5369078;32;35793;-89
2023/05/17 06:08:28;;;;;;;;;;;;;;;19.90;71.76;99769.19;5365756;32;34578;-89
2023/05/17 06:11:33;;;;;;;;;;;;;;;20.24;70.59;99770.56;5376667;32;33235;-90
2023/05/17 06:14:47;;;;;;;;;;;;;;;19.90;72.32;99772.72;5403370;32;34921;-89
2023/05/17 06:17:49;;;;;;;;;;;;;;;19.17;76.34;99776.31;5396221;32;44905;-88
2023/05/17 06:20:51;;;;;;;;;;;;;;;19.40;75.21;99777.06;5373310;32;35939;-89
2023/05/17 06:23:53;;;;;;;;;;;;;;;19.69;73.91;99779.91;5369205;32;34680;-88
2023/05/17 06:26:56;;;;;;;;;;;;;;;19.30;74.60;99790.28;5389934;32;34248;-88
2023/05/17 06:29:58;;;;;;;;;;;;;;;19.13;75.97;99793.56;5362850;32;34585;-89
2023/05/17 06:33:00;;;;;;;;;;;;;;;18.64;77.41;99803.75;5389787;32;34389;-89
2023/05/17 06:36:03;;;;;;;;;;;;;;;18.89;76.41;99793.78;5378559;32;34308;-89
2023/05/17 06:39:05;;;;;;;;;;;;;;;18.59;77.96;99802.44;5400824;32;33913;-90
2023/05/17 06:42:08;;;;;;;;;;;;;;;19.05;75.98;99786.19;5407889;32;34434;-88
2023/05/17 06:45:10;;;;;;;;;;;;;;;19.15;75.91;99796.94;5393687;32;35450;-89
2023/05/17 06:48:12;;;;;;;;;;;;;;;18.44;78.92;99807.19;5403565;32;34034;-91
2023/05/17 06:51:15;;;;;;;;;;;;;;;18.58;78.25;99814.06;5376304;32;34301;-88
2023/05/17 06:54:18;;;;;;;;;;;;;;;18.90;76.94;99809.63;5382467;32;45150;-89
2023/05/17 06:57:20;;;;;;;;;;;;;;;19.00;75.93;99806.19;5384693;32;35049;-87
2023/05/17 07:00:23;;;;;;;;;;;;;;;18.96;75.40;99810.94;5381172;32;35923;-90
2023/05/17 07:03:29;;;;;;;;;;;;;;;19.43;73.42;99819.41;5386890;32;34750;-87
2023/05/17 07:06:35;;;;;;;;;;;;;;;18.46;76.56;99825.69;5382865;32;35447;-90
2023/05/17 07:09:42;;;;;;;;;;;;;;;19.30;74.95;99827.59;5403660;32;34777;-90
2023/05/17 07:12:52;;;;;;;;;;;;;;;18.78;76.17;99836.41;5391150;32;35692;-90
2023/05/17 07:15:59;;;;;;;;;;;;;;;18.64;78.70;99843.69;5400231;32;35180;-92
2023/05/17 07:19:11;;;;;;;;;;;;;;;18.83;76.41;99848.37;5373980;32;33228;-90
2023/05/17 07:22:19;;;;;;;;;;;;;;;19.36;74.53;99839.56;5391145;32;32280;-90
2023/05/17 07:25:24;;;;;;;;;;;;;;;18.78;76.19;99845.25;5408215;32;43193;-89
2023/05/17 07:28:31;;;;;;;;;;;;;;;19.58;73.52;99835.94;5373390;32;35301;-89
2023/05/17 07:31:36;;;;;;;;;;;;;;;19.13;75.28;99838.84;5356046;32;35923;-86
2023/05/17 07:34:43;;;;;;;;;;;;;;;18.72;77.97;99845.75;5378715;32;34372;-87
2023/05/17 07:37:48;;;;;;;;;;;;;;;18.73;77.53;99851.91;5360151;32;44128;-86
2023/05/17 07:40:51;;;;;;;;;;;;;;;18.88;78.72;99842.69;5375173;32;34959;-90
2023/05/17 07:43:58;;;;;;;;;;;;;;;19.41;75.37;99843.53;5387222;32;33258;-92
2023/05/17 07:47:10;;;;;;;;;;;;;;;19.40;74.50;99838.34;5401888;32;35389;-90
2023/05/17 07:50:32;;;;;;;;;;;;;;;19.40;74.82;99844.50;5394748;32;34955;-89
2023/05/17 07:53:40;;;;;;;;;;;;;;;19.40;74.94;99847.19;5410052;32;33111;-89
2023/05/17 07:56:58;;;;;;;;;;;;;;;19.04;76.90;99858.22;5414573;32;35800;-90
2023/05/17 08:00:05;;;;;;;;;;;;;;;19.35;75.49;99840.53;5394397;32;34628;-92
2023/05/17 08:03:14;;;;;;;;;;;;;;;20.11;72.09;99847.34;5427737;32;35173;-90
2023/05/17 08:06:18;;;;;;;;;;;;;;;19.60;74.85;99853.50;5405349;32;46074;-89
2023/05/17 08:09:22;;;;;;;;;;;;;;;19.40;75.72;99855.19;5390116;32;35148;-88
2023/05/17 08:12:25;;;;;;;;;;;;;;;19.85;74.24;99849.59;5401534;32;35174;-87
2023/05/17 08:15:29;;;;;;;;;;;;;;;19.89;72.86;99860.84;5418921;32;34009;-90
2023/05/17 08:18:48;;;;;;;;;;;;;;;20.16;70.99;99861.13;5373713;32;45275;-89
2023/05/17 08:22:14;;;;;;;;;;;;;;;19.67;73.83;99869.84;5366574;32;33014;-87
2023/05/17 08:25:29;;;;;;;;;;;;;;;19.65;74.85;99869.97;5339490;32;44144;-87
2023/05/17 08:28:33;;;;;;;;;;;;;;;19.30;75.48;99870.22;5330984;32;35514;-91
2023/05/17 08:31:44;;;;;;;;;;;;;;;19.55;73.77;99868.16;5341098;32;37108;-88
2023/05/17 08:34:58;;;;;;;;;;;;;;;19.97;72.17;99866.38;5347334;32;34453;-90
2023/05/17 08:38:07;;;;;;;;;;;;;;;19.04;76.75;99879.53;5332954;32;34543;-89
2023/05/17 08:41:13;;;;;;;;;;;;;;;19.20;76.69;99871.97;5339087;32;33791;-87
2023/05/17 08:44:18;;;;;;;;;;;;;;;19.44;75.99;99872.56;5347367;32;44321;-91
2023/05/17 08:47:30;;;;;;;;;;;;;;;20.03;72.45;99879.19;5348581;32;35756;-92
2023/05/17 08:50:39;;;;;;;;;;;;;;;19.75;73.29;99875.34;5350292;32;35200;-87
2023/05/17 08:53:45;;;;;;;;;;;;;;;19.94;73.63;99875.47;5341751;32;36139;-88
2023/05/17 08:56:57;;;;;;;;;;;;;;;19.07;77.92;99884.63;5327932;32;33988;-91
2023/05/17 09:03:42;;;;;;;;;;;;;;;19.56;75.54;99877.84;5350893;32;36149;-89
2023/05/17 09:06:49;;;;;;;;;;;;;;;19.01;78.62;99885.97;5375054;32;35265;-88
2023/05/17 09:09:57;;;;;;;;;;;;;;;19.56;76.34;99870.69;5350779;32;44476;-91
2023/05/17 09:13:04;;;;;;;;;;;;;;;19.63;75.55;99871.06;5418097;32;34734;-90
2023/05/17 09:20:35;;;;;;;;;;;;;;;19.61;74.37;99871.19;5234316;33;36013;-89
2023/05/17 09:23:46;;;;;;;;;;;;;;;19.09;78.22;99880.00;5273661;33;35348;-89
2023/05/17 09:27:09;;;;;;;;;;;;;;;19.34;75.08;99873.50;5309797;33;33784;-87
2023/05/17 09:34:17;;;;;;;;;;;;;;;19.19;76.20;99880.91;5260000;33;35892;-87
2023/05/17 09:37:25;;;;;;;;;;;;;;;19.07;76.50;99884.63;5306464;33;44498;-87
2023/05/17 09:40:57;;;;;;;;;;;;;;;19.90;75.12;99890.06;5302637;33;35273;-88
2023/05/17 09:44:06;;;;;;;;;;;;;;;19.48;74.80;99883.84;5328223;33;34165;-89
2023/05/17 09:47:11;;;;;;;;;;;;;;;20.22;73.05;99884.59;5301967;33;34512;-88
2023/05/17 09:50:20;;;;;;;;;;;;;;;20.70;68.80;99894.63;5297815;33;34632;-88
2023/05/17 09:53:30;;;;;;;;;;;;;;;20.84;68.54;99901.41;5276683;33;34428;-90
2023/05/17 09:56:33;;;;;;;;;;;;;;;20.26;69.76;99902.03;5268790;33;34797;-88
2023/05/17 09:59:36;;;;;;;;;;;;;;;19.81;71.79;99904.16;5294511;32;34491;-90
2023/05/17 10:02:43;;;;;;;;;;;;;;;19.81;74.40;99905.97;5341441;32;35306;-88
2023/05/17 10:06:10;;;;;;;;;;;;;;;20.23;71.80;99904.97;5385655;32;45825;-89
2023/05/17 10:09:36;;;;;;;;;;;;;;;21.08;67.59;99904.53;5406459;32;34564;-90
2023/05/17 10:12:41;;;;;;;;;;;;;;;21.30;66.25;99910.63;5391221;32;34916;-89
2023/05/17 10:15:47;;;;;;;;;;;;;;;21.19;67.93;99902.72;5400222;32;45924;-89
2023/05/17 10:18:49;;;;;;;;;;;;;;;21.13;68.42;99903.28;5390634;32;34759;-88
2023/05/17 10:21:52;;;;;;;;;;;;;;;22.69;59.97;99903.72;5411023;32;34968;-90
2023/05/17 10:24:55;;;;;;;;;;;;;;;21.66;62.76;99905.56;5395897;32;34455;-87
2023/05/17 10:27:58;;;;;;;;;;;;;;;22.49;61.08;99907.47;5389130;32;34398;-88
2023/05/17 10:31:11;;;;;;;;;;;;;;;22.21;62.46;99903.06;5353971;32;34973;-88
2023/05/17 10:34:20;;;;;;;;;;;;;;;22.93;59.22;99907.72;5357080;32;44576;-90
2023/05/17 10:37:38;;;;;;;;;;;;;;;23.31;57.64;99905.72;5384486;32;34949;-92
2023/05/17 10:40:46;;;;;;;;;;;;;;;22.79;60.50;99908.16;5395295;32;36272;-88
2023/05/17 10:43:56;;;;;;;;;;;;;;;24.78;54.58;99896.81;5374468;32;44508;-87
2023/05/17 10:47:10;;;;;;;;;;;;;;;25.54;51.03;99893.09;5379832;32;33876;-88
2023/05/17 10:50:20;;;;;;;;;;;;;;;24.36;53.89;99902.19;5383150;32;44560;-87
2023/05/17 10:53:28;;;;;;;;;;;;;;;22.69;59.71;99917.09;5399118;32;34415;-90
2023/05/17 10:56:49;;;;;;;;;;;;;;;23.58;55.55;99920.91;5397851;32;36626;-87
2023/05/17 10:59:55;;;;;;;;;;;;;;;24.39;53.03;99899.19;5385930;32;44927;-88
2023/05/17 11:03:18;;;;;;;;;;;;;;;23.10;56.69;99922.94;5338745;32;34698;-87
2023/05/17 11:06:21;;;;;;;;;;;;;;;23.49;54.66;99923.50;5337034;32;44909;-89
2023/05/17 11:09:26;;;;;;;;;;;;;;;22.08;58.77;99936.31;5336930;32;33935;-89
2023/05/17 11:12:34;;;;;;;;;;;;;;;22.19;58.62;99937.16;5344940;32;36785;-91
2023/05/17 11:15:43;;;;;;;;;;;;;;;22.49;58.26;99939.63;5362539;32;35663;-89
2023/05/17 11:18:49;;;;;;;;;;;;;;;21.46;61.63;99940.34;5343143;32;45190;-89
2023/05/17 11:21:52;;;;;;;;;;;;;;;22.15;59.16;99936.59;5337512;32;34658;-87
2023/05/17 11:24:55;;;;;;;;;;;;;;;22.11;58.97;99938.75;5337168;32;36094;-87
2023/05/17 11:28:01;;;;;;;;;;;;;;;22.61;57.37;99938.44;5339983;32;36867;-89
2023/05/17 11:31:12;;;;;;;;;;;;;;;24.47;51.98;99936.81;5375662;32;35154;-91
2023/05/17 11:34:32;;;;;;;;;;;;;;;25.71;48.11;99940.53;5266629;33;34946;-88
2023/05/17 11:37:34;;;;;;;;;;;;;;;26.09;47.16;99938.19;5273370;33;36121;-88
2023/05/17 11:40:39;;;;;;;;;;;;;;;25.75;46.87;99946.44;5312159;32;34798;-95
2023/05/17 11:44:05;;;;;;;;;;;;;;;26.43;44.94;99952.28;5339484;32;34804;-91
2023/05/17 11:47:09;;;;;;;;;;;;;;;26.53;44.13;99943.16;5320004;32;34883;-90
2023/05/17 11:50:15;;;;;;;;;;;;;;;24.88;49.67;99953.13;5321638;32;35778;-89
2023/05/17 11:53:17;;;;;;;;;;;;;;;25.45;47.09;99956.00;5320017;32;44544;-89
2023/05/17 11:56:21;;;;;;;;;;;;;;;23.28;51.96;99963.19;5323816;32;35458;-90
2023/05/17 11:59:39;;;;;;;;;;;;;;;23.04;51.98;99963.75;5311764;32;33017;-88
2023/05/17 12:02:44;;;;;;;;;;;;;;;24.83;48.99;99953.59;5303805;32;35025;-87
2023/05/17 12:05:48;;;;;;;;;;;;;;;23.85;51.72;99970.94;5353213;32;44796;-90
2023/05/17 12:08:51;;;;;;;;;;;;;;;23.46;51.67;99973.94;5384592;32;34260;-89
2023/05/17 12:11:55;;;;;;;;;;;;;;;23.30;52.53;99965.69;5371835;32;34861;-86
2023/05/17 12:14:57;;;;;;;;;;;;;;;23.62;51.96;99973.25;5396938;32;35538;-90
2023/05/17 12:17:59;;;;;;;;;;;;;;;24.13;50.90;99969.81;5419893;32;34720;-90
2023/05/17 12:21:02;;;;;;;;;;;;;;;22.13;56.21;99966.19;5379397;32;35136;-89
2023/05/17 12:24:05;;;;;;;;;;;;;;;23.47;53.04;99973.75;5383593;32;35469;-87
2023/05/17 12:27:07;;;;;;;;;;;;;;;20.72;59.64;99977.25;5402059;32;35652;-87
2023/05/17 12:30:20;;;;;;;;;;;;;;;21.82;57.35;99972.69;5382631;32;45371;-86
2023/05/17 12:33:27;;;;;;;;;;;;;;;22.98;54.31;99967.88;5382304;32;35852;-90
2023/05/17 12:36:40;;;;;;;;;;;;;;;22.31;56.59;99974.34;5423041;32;34016;-90
2023/05/17 12:39:48;;;;;;;;;;;;;;;22.17;57.16;99972.13;5406750;32;44301;-87
2023/05/17 12:42:53;;;;;;;;;;;;;;;21.63;56.92;99982.41;5397993;32;35375;-94
2023/05/17 12:46:05;;;;;;;;;;;;;;;22.53;55.35;99983.84;5450654;32;35322;-91
2023/05/17 12:49:12;;;;;;;;;;;;;;;22.44;54.39;99982.88;5402764;32;34043;-90
2023/05/17 12:52:21;;;;;;;;;;;;;;;22.49;54.79;99986.97;5401200;32;44467;-90
2023/05/17 12:55:25;;;;;;;;;;;;;;;21.69;57.29;99980.16;5408749;32;35972;-90
2023/05/17 12:58:31;;;;;;;;;;;;;;;22.78;53.84;99987.69;5390835;32;35527;-89
2023/05/17 13:02:05;;;;;;;;;;;;;;;21.40;57.41;99986.34;5432833;32;35255;-89
2023/05/17 13:05:17;;;;;;;;;;;;;;;22.44;55.74;100003.47;5418409;32;34530;-92
2023/05/17 13:08:29;;;;;;;;;;;;;;;21.31;57.54;100008.53;5411973;32;44346;-88
2023/05/17 13:11:31;;;;;;;;;;;;;;;21.70;56.55;100011.25;5401429;32;35032;-90
2023/05/17 13:14:35;;;;;;;;;;;;;;;21.90;56.56;100003.13;5382744;32;35272;-86
2023/05/17 13:17:43;;;;;;;;;;;;;;;22.19;55.31;100004.94;5384089;32;35239;-88
2023/05/17 13:20:46;;;;;;;;;;;;;;;21.51;57.41;100012.97;5370439;32;43889;-88
2023/05/17 13:23:48;;;;;;;;;;;;;;;22.54;55.03;100012.31;5386967;32;34953;-87
2023/05/17 13:26:50;;;;;;;;;;;;;;;22.62;53.64;100009.75;5396584;32;36565;-90
2023/05/17 13:29:53;;;;;;;;;;;;;;;22.37;55.25;99999.69;5394043;32;33808;-87
2023/05/17 13:32:56;;;;;;;;;;;;;;;22.37;54.88;100005.03;5415065;32;34926;-86
2023/05/17 13:35:58;;;;;;;;;;;;;;;22.57;53.73;100004.00;5426655;32;34894;-89
2023/05/17 13:39:01;;;;;;;;;;;;;;;22.61;54.09;100000.03;5410134;32;35204;-89
2023/05/17 13:42:12;;;;;;;;;;;;;;;22.22;54.47;99998.44;5420971;32;34740;-85
2023/05/17 13:45:14;;;;;;;;;;;;;;;22.09;55.19;99996.06;5395375;32;34527;-88
2023/05/17 13:48:16;;;;;;;;;;;;;;;21.93;55.55;99999.28;5425646;32;44946;-89
2023/05/17 13:51:36;;;;;;;;;;;;;;;21.65;55.90;99997.47;5438380;32;35874;-87
2023/05/17 13:54:41;;;;;;;;;;;;;;;21.30;57.88;100004.19;5436657;32;33791;-89
2023/05/17 13:57:45;;;;;;;;;;;;;;;20.90;58.30;100001.50;5446971;32;33932;-90
2023/05/17 14:00:55;;;;;;;;;;;;;;;20.58;60.19;100007.84;5423079;32;35219;-90
2023/05/17 14:03:59;;;;;;;;;;;;;;;20.60;59.61;100010.37;5417922;32;34436;-91
2023/05/17 14:07:04;;;;;;;;;;;;;;;20.48;59.85;100006.94;5413521;32;35370;-86
2023/05/17 14:10:07;;;;;;;;;;;;;;;21.05;58.28;100017.03;5360307;32;1169251;-91
2023/05/17 14:13:12;;;;;;;;;;;;;;;20.79;58.43;100015.81;5409030;32;34165;-90
2023/05/17 14:16:14;;;;;;;;;;;;;;;20.61;58.23;100020.94;5402055;32;34567;-89
2023/05/17 14:19:27;;;;;;;;;;;;;;;21.08;57.67;100015.91;5400991;32;44604;-89
2023/05/17 14:22:37;;;;;;;;;;;;;;;20.40;59.47;100026.25;5376140;32;34781;-88
2023/05/17 14:25:47;;;;;;;;;;;;;;;20.47;59.71;100032.78;5409026;32;34411;-89
2023/05/17 14:29:22;;;;;;;;;;;;;;;20.48;59.28;100031.84;5375113;32;34715;-91
2023/05/17 14:33:00;;;;;;;;;;;;;;;20.01;59.03;100042.00;5354235;32;35702;-90
2023/05/17 14:36:52;;;;;;;;;;;;;;;;;;;;;
2023/05/17 14:40:44;;;;;;;;;;;;;;;19.54;62.23;100063.72;5334602;32;34939;-89
2023/05/17 14:44:00;;;;;;;;;;;;;;;21.15;56.48;100059.81;5360954;32;34689;-90
2023/05/17 14:47:07;;;;;;;;;;;;;;;21.46;55.39;100057.97;5363875;32;34955;-88
2023/05/17 14:50:09;;;;;;;;;;;;;;;20.75;56.57;100070.47;5369893;32;34415;-89
2023/05/17 14:53:12;;;;;;;;;;;;;;;19.43;59.77;100076.09;5362336;32;33070;-90
2023/05/17 14:56:15;;;;;;;;;;;;;;;19.30;60.48;100086.03;5354112;32;35153;-90
2023/05/17 14:59:28;;;;;;;;;;;;;;;20.39;57.75;100080.63;5379703;32;44588;-91
2023/05/17 15:02:30;;;;;;;;;;;;;;;20.09;58.46;100084.03;5369466;32;35676;-87
2023/05/17 15:05:32;;;;;;;;;;;;;;;20.29;58.08;100071.72;5390587;32;33795;-88
2023/05/17 15:08:38;;;;;;;;;;;;;;;20.47;57.33;100075.50;5446863;32;33965;-89
2023/05/17 15:11:45;;;;;;;;;;;;;;;20.23;57.94;100093.56;5421765;32;35154;-90
2023/05/17 15:14:49;;;;;;;;;;;;;;;20.52;56.66;100091.97;5429975;32;43361;-93
2023/05/17 15:17:53;;;;;;;;;;;;;;;20.44;56.96;100098.91;5451370;32;34251;-90
2023/05/17 15:21:10;;;;;;;;;;;;;;;20.53;57.11;100103.50;5432750;32;35192;-90
2023/05/17 15:24:18;;;;;;;;;;;;;;;20.37;56.53;100103.94;5438730;32;34516;-90
2023/05/17 15:27:20;;;;;;;;;;;;;;;19.94;58.42;100112.00;5449681;32;43765;-89
2023/05/17 15:30:28;;;;;;;;;;;;;;;19.52;58.98;100117.16;5424154;32;34188;-89
2023/05/17 15:33:31;;;;;;;;;;;;;;;19.70;57.77;100118.34;5408978;32;34467;-90
2023/05/17 15:36:33;;;;;;;;;;;;;;;19.16;58.08;100124.44;5374310;32;36080;-89
2023/05/17 15:39:35;;;;;;;;;;;;;;;19.48;58.54;100119.22;5405203;32;34986;-91
2023/05/17 15:42:43;;;;;;;;;;;;;;;18.75;60.43;100121.53;5413026;32;34501;-91
2023/05/17 15:46:15;;;;;;;;;;;;;;;;;;;;;
2023/05/17 15:49:24;;;;;;;;;;;;;;;17.95;63.02;100127.47;5429615;32;36010;-92
2023/05/17 15:52:29;;;;;;;;;;;;;;;18.24;61.90;100132.47;5430993;32;34511;-90
2023/05/17 15:55:38;;;;;;;;;;;;;;;16.99;67.10;100134.38;5430507;32;34377;-91
2023/05/17 15:58:43;;;;;;;;;;;;;;;17.30;65.02;100133.91;5443642;32;34127;-88
2023/05/17 16:02:00;;;;;;;;;;;;;;;17.26;65.61;100139.56;5437016;32;43973;-93
2023/05/17 16:05:05;;;;;;;;;;;;;;;16.69;67.63;100139.97;5426027;32;35061;-91
2023/05/17 16:08:19;;;;;;;;;;;;;;;17.18;65.22;100141.91;5443605;32;33692;-92
2023/05/17 16:11:29;;;;;;;;;;;;;;;16.75;66.99;100140.44;5429163;32;34925;-91
2023/05/17 16:14:31;;;;;;;;;;;;;;;16.82;66.95;100143.53;5435661;32;34741;-89
2023/05/17 16:17:38;;;;;;;;;;;;;;;17.13;64.81;100142.25;5432337;32;34363;-90
2023/05/17 16:20:41;;;;;;;;;;;;;;;16.21;68.11;100163.53;5438263;32;34218;-92
2023/05/17 16:23:46;;;;;;;;;;;;;;;16.06;68.43;100160.09;5441720;32;35898;-91
2023/05/17 16:26:52;;;;;;;;;;;;;;;16.35;68.54;100162.59;5411427;32;45412;-91
2023/05/17 16:30:04;;;;;;;;;;;;;;;16.04;68.90;100159.34;5456302;32;35823;-89
2023/05/17 16:33:20;;;;;;;;;;;;;;;16.13;68.06;100169.34;5446577;32;35410;-91
2023/05/17 16:36:33;;;;;;;;;;;;;;;16.09;69.70;100173.13;5446513;32;44486;-91
2023/05/17 16:39:38;;;;;;;;;;;;;;;16.11;69.23;100184.50;5423256;32;34397;-90